Time;durP1;ratioP1;P1;durP2;ratioP2;P2;SDS_P1;SDS_P2;PMS_P1;PMS_P2;Temp;Humidity;BMP_temperature;BMP_pressure;BME280_temperature;BME280_humidity;BME280_pressure;Samples;Min_cycle;Max_cycle;Signal;HPM_P1;HPM_P2
2022/05/30 00:01:08;;;;;;;2.33;1.90;;;;;;;;;;4979492;28;20271;-82
2022/05/30 00:03:35;;;;;;;1.95;1.75;;;;;;;;;;4987525;28;20234;-82
2022/05/30 00:06:02;;;;;;;2.35;1.67;;;;;;;;;;4981874;28;20255;-82
2022/05/30 00:08:29;;;;;;;1.70;1.58;;;;;;;;;;4984034;28;20234;-82
2022/05/30 00:10:57;;;;;;;1.70;1.60;;;;;;;;;;4985096;28;20207;-82
2022/05/30 00:13:25;;;;;;;2.33;1.90;;;;;;;;;;4982116;28;20664;-82
2022/05/30 00:15:52;;;;;;;1.90;1.60;;;;;;;;;;4980176;28;20235;-82
2022/05/30 00:18:21;;;;;;;2.25;1.58;;;;;;;;;;4981420;28;20223;-82
2022/05/30 00:20:49;;;;;;;1.83;1.45;;;;;;;;;;4989255;28;20199;-82
2022/05/30 00:23:16;;;;;;;2.65;1.58;;;;;;;;;;4990489;28;20555;-82
2022/05/30 00:25:44;;;;;;;1.98;1.73;;;;;;;;;;4981783;28;20279;-83
2022/05/30 00:28:11;;;;;;;1.50;1.40;;;;;;;;;;4993985;28;20192;-82
2022/05/30 00:30:39;;;;;;;2.17;1.60;;;;;;;;;;4980689;28;20216;-82
2022/05/30 00:33:06;;;;;;;1.55;1.42;;;;;;;;;;4980169;28;20208;-82
2022/05/30 00:35:36;;;;;;;1.80;1.65;;;;;;;;;;4985874;28;20294;-82
2022/05/30 00:38:03;;;;;;;1.70;1.60;;;;;;;;;;4983000;28;20353;-82
2022/05/30 00:40:31;;;;;;;1.52;1.42;;;;;;;;;;4983606;28;20204;-82
2022/05/30 00:43:13;;;;;;;1.60;1.50;;;;;;;;;;4993382;28;20306;-82
2022/05/30 00:45:41;;;;;;;1.63;1.50;;;;;;;;;;4984385;28;20256;-82
2022/05/30 00:48:08;;;;;;;1.50;1.40;;;;;;;;;;4991332;28;20214;-82
2022/05/30 00:50:37;;;;;;;1.38;1.25;;;;;;;;;;4987269;28;20204;-82
2022/05/30 00:53:05;;;;;;;1.70;1.60;;;;;;;;;;4985629;28;20263;-82
2022/05/30 00:55:33;;;;;;;1.70;1.60;;;;;;;;;;4982355;28;20227;-82
2022/05/30 00:58:00;;;;;;;1.88;1.63;;;;;;;;;;4983098;28;20266;-82
2022/05/30 01:00:28;;;;;;;1.65;1.55;;;;;;;;;;4981116;28;20263;-82
2022/05/30 01:08:28;;;;;;;1.63;1.50;;;;;;;;;;4992595;28;20293;-83
2022/05/30 01:10:56;;;;;;;1.50;1.40;;;;;;;;;;4978946;28;20286;-83
2022/05/30 01:13:27;;;;;;;1.50;1.40;;;;;;;;;;4980335;28;20254;-82
2022/05/30 01:15:55;;;;;;;1.60;1.50;;;;;;;;;;4988873;28;20279;-82
2022/05/30 01:18:24;;;;;;;1.38;1.27;;;;;;;;;;4990408;28;20224;-83
2022/05/30 01:20:57;;;;;;;1.45;1.35;;;;;;;;;;4980786;28;20562;-82
2022/05/30 01:23:30;;;;;;;1.48;1.38;;;;;;;;;;4975713;28;20205;-83
2022/05/30 01:26:09;;;;;;;1.60;1.50;;;;;;;;;;4978015;28;20220;-82
2022/05/30 01:28:41;;;;;;;1.50;1.40;;;;;;;;;;4983053;28;20199;-82
2022/05/30 01:31:09;;;;;;;1.50;1.40;;;;;;;;;;4978687;28;20242;-81
2022/05/30 01:33:36;;;;;;;2.25;1.60;;;;;;;;;;4979104;28;20262;-82
2022/05/30 01:36:03;;;;;;;1.48;1.38;;;;;;;;;;4991640;28;20290;-82
2022/05/30 01:38:31;;;;;;;1.58;1.48;;;;;;;;;;4977804;28;20275;-82
2022/05/30 01:40:59;;;;;;;1.50;1.40;;;;;;;;;;4976565;28;20207;-82
2022/05/30 01:43:26;;;;;;;1.63;1.52;;;;;;;;;;4976117;28;20267;-82
2022/05/30 01:45:55;;;;;;;2.47;1.52;;;;;;;;;;4983478;28;20278;-82
2022/05/30 01:48:22;;;;;;;1.52;1.42;;;;;;;;;;4976510;28;20204;-82
2022/05/30 01:50:50;;;;;;;1.50;1.40;;;;;;;;;;4973656;28;20211;-82
2022/05/30 01:53:17;;;;;;;1.63;1.52;;;;;;;;;;4984422;28;20226;-82
2022/05/30 01:55:44;;;;;;;1.50;1.40;;;;;;;;;;4986389;28;20219;-82
2022/05/30 01:58:12;;;;;;;1.55;1.45;;;;;;;;;;4976054;28;20282;-82
2022/05/30 02:00:39;;;;;;;1.70;1.60;;;;;;;;;;4976562;28;20207;-83
2022/05/30 02:03:08;;;;;;;1.67;1.33;;;;;;;;;;4976199;28;20200;-82
2022/05/30 02:05:35;;;;;;;1.45;1.35;;;;;;;;;;4991440;28;20242;-82
2022/05/30 02:08:02;;;;;;;1.55;1.35;;;;;;;;;;4987442;28;20207;-82
2022/05/30 02:10:30;;;;;;;1.50;1.40;;;;;;;;;;4978456;28;20204;-82
2022/05/30 02:12:57;;;;;;;1.45;1.30;;;;;;;;;;4985985;28;20250;-82
2022/05/30 02:15:25;;;;;;;2.22;1.42;;;;;;;;;;4983830;28;20777;-82
2022/05/30 02:17:52;;;;;;;2.03;1.50;;;;;;;;;;4984703;28;20208;-82
2022/05/30 02:20:20;;;;;;;1.50;1.40;;;;;;;;;;4977003;28;20203;-81
2022/05/30 02:22:48;;;;;;;1.73;1.50;;;;;;;;;;4989080;28;20291;-81
2022/05/30 02:25:15;;;;;;;1.52;1.42;;;;;;;;;;4988954;28;20281;-82
2022/05/30 02:27:42;;;;;;;1.45;1.30;;;;;;;;;;4975981;28;20638;-82
2022/05/30 02:30:10;;;;;;;1.92;1.17;;;;;;;;;;4975777;28;20259;-82
2022/05/30 02:32:38;;;;;;;1.88;1.50;;;;;;;;;;4976932;28;20196;-82
2022/05/30 02:37:51;;;;;;;1.48;1.38;;;;;;;;;;4989979;28;20219;-82
2022/05/30 02:40:19;;;;;;;1.67;1.52;;;;;;;;;;4989936;28;20215;-82
2022/05/30 02:42:46;;;;;;;1.50;1.30;;;;;;;;;;4986045;28;20239;-82
2022/05/30 02:45:13;;;;;;;2.15;1.42;;;;;;;;;;4977299;28;20274;-82
2022/05/30 02:47:41;;;;;;;1.73;1.58;;;;;;;;;;4988642;28;20235;-82
2022/05/30 02:50:08;;;;;;;1.52;1.42;;;;;;;;;;4977120;28;20282;-82
2022/05/30 02:52:36;;;;;;;1.48;1.38;;;;;;;;;;4977034;28;20242;-82
2022/05/30 02:55:05;;;;;;;1.38;1.27;;;;;;;;;;4983348;28;20220;-82
2022/05/30 02:57:32;;;;;;;1.35;1.25;;;;;;;;;;4992640;28;20238;-82
2022/05/30 02:59:59;;;;;;;2.30;1.50;;;;;;;;;;4977692;28;20322;-82
2022/05/30 03:02:26;;;;;;;2.03;1.48;;;;;;;;;;4976473;28;20211;-83
2022/05/30 03:04:54;;;;;;;1.60;1.50;;;;;;;;;;4975925;28;20275;-82
2022/05/30 03:07:22;;;;;;;1.70;1.60;;;;;;;;;;4989094;28;20207;-82
2022/05/30 03:09:49;;;;;;;1.75;1.45;;;;;;;;;;4986134;28;20208;-82
2022/05/30 03:12:18;;;;;;;1.85;1.50;;;;;;;;;;4976576;28;20203;-82
2022/05/30 03:14:45;;;;;;;1.60;1.30;;;;;;;;;;4976168;28;20211;-82
2022/05/30 03:17:12;;;;;;;1.60;1.50;;;;;;;;;;4988736;28;20280;-82
2022/05/30 03:19:39;;;;;;;1.27;1.17;;;;;;;;;;4990713;28;20269;-82
2022/05/30 03:22:07;;;;;;;1.50;1.40;;;;;;;;;;4975340;28;20231;-82
2022/05/30 03:24:34;;;;;;;1.73;1.30;;;;;;;;;;4979339;28;20322;-82
2022/05/30 03:27:01;;;;;;;1.90;1.60;;;;;;;;;;4983922;28;20203;-82
2022/05/30 03:29:31;;;;;;;1.50;1.40;;;;;;;;;;4980174;28;20243;-82
2022/05/30 03:31:59;;;;;;;1.30;1.20;;;;;;;;;;4988378;28;20261;-82
2022/05/30 03:34:26;;;;;;;1.65;1.25;;;;;;;;;;4988385;28;20204;-82
2022/05/30 03:36:53;;;;;;;1.40;1.30;;;;;;;;;;4977733;28;20219;-82
2022/05/30 03:39:20;;;;;;;3.30;1.40;;;;;;;;;;4988268;28;20223;-82
2022/05/30 03:41:48;;;;;;;1.50;1.40;;;;;;;;;;4985401;28;20208;-82
2022/05/30 03:44:15;;;;;;;1.58;1.40;;;;;;;;;;4990868;28;20359;-82
2022/05/30 03:46:44;;;;;;;1.63;1.50;;;;;;;;;;4979431;28;20250;-82
2022/05/30 03:49:11;;;;;;;1.73;1.25;;;;;;;;;;4988481;28;20295;-82
2022/05/30 03:51:38;;;;;;;1.83;1.23;;;;;;;;;;4988971;28;20215;-82
2022/05/30 03:54:05;;;;;;;1.50;1.23;;;;;;;;;;4979871;28;20263;-82
2022/05/30 03:56:33;;;;;;;1.48;1.38;;;;;;;;;;4995865;28;20227;-82
2022/05/30 03:59:00;;;;;;;1.80;1.52;;;;;;;;;;4981800;28;20247;-81
2022/05/30 04:01:27;;;;;;;1.45;1.35;;;;;;;;;;4988104;28;20262;-81
2022/05/30 04:03:56;;;;;;;1.85;1.50;;;;;;;;;;4978473;28;20219;-81
2022/05/30 04:06:41;;;;;;;1.50;1.40;;;;;;;;;;5006544;23;20227;-85
2022/05/30 04:09:08;;;;;;;1.83;1.30;;;;;;;;;;4978569;28;20203;-85
2022/05/30 04:11:36;;;;;;;1.50;1.40;;;;;;;;;;4990382;28;20214;-85
2022/05/30 04:14:10;;;;;;;1.52;1.25;;;;;;;;;;4990545;28;20259;-85
2022/05/30 04:16:37;;;;;;;1.70;1.45;;;;;;;;;;4979877;28;20238;-86
2022/05/30 04:19:38;;;;;;;3.28;1.50;;;;;;;;;;4975851;28;20223;-85
2022/05/30 04:22:06;;;;;;;1.60;1.50;;;;;;;;;;4971377;28;20215;-85
2022/05/30 04:24:34;;;;;;;1.90;1.50;;;;;;;;;;4988487;28;20299;-86
2022/05/30 04:27:08;;;;;;;1.52;1.42;;;;;;;;;;4986946;28;20233;-85
2022/05/30 04:29:59;;;;;;;1.88;1.50;;;;;;;;;;4977561;28;20198;-85
2022/05/30 04:38:20;;;;;;;1.98;1.40;;;;;;;;;;4898500;29;20343;-85
2022/05/30 04:44:27;;;;;;;25.40;5.28;;;;;;;;;;4898854;29;20198;-87
2022/05/30 04:46:55;;;;;;;18.00;3.85;;;;;;;;;;4903226;29;20231;-85
2022/05/30 04:49:22;;;;;;;21.55;4.28;;;;;;;;;;4906740;29;20202;-84
2022/05/30 04:51:51;;;;;;;37.05;6.50;;;;;;;;;;4903340;29;20288;-85
2022/05/30 04:54:22;;;;;;;54.17;11.43;;;;;;;;;;4903724;29;20210;-86
2022/05/30 04:56:51;;;;;;;14.40;3.22;;;;;;;;;;4887974;29;20302;-85
2022/05/30 04:59:18;;;;;;;6.88;2.40;;;;;;;;;;4888796;29;20226;-85
2022/05/30 05:01:46;;;;;;;9.65;2.97;;;;;;;;;;4895025;29;20273;-85
2022/05/30 05:04:14;;;;;;;11.15;3.35;;;;;;;;;;4901936;29;20203;-83
2022/05/30 05:06:44;;;;;;;14.38;3.38;;;;;;;;;;4906697;29;20262;-83
2022/05/30 05:09:28;;;;;;;11.70;3.08;;;;;;;;;;4945667;28;20223;-84
2022/05/30 05:11:55;;;;;;;13.98;3.30;;;;;;;;;;4987232;28;20208;-83
2022/05/30 05:14:22;;;;;;;10.48;2.88;;;;;;;;;;4992166;28;20207;-84
2022/05/30 05:16:50;;;;;;;10.75;2.80;;;;;;;;;;4984195;28;20247;-82
2022/05/30 05:19:28;;;;;;;11.38;3.00;;;;;;;;;;4982578;28;20220;-83
2022/05/30 05:22:01;;;;;;;6.20;2.47;;;;;;;;;;4979242;28;20211;-84
2022/05/30 05:28:04;;;;;;;9.50;2.60;;;;;;;;;;4979263;28;20194;-92
2022/05/30 05:30:48;;;;;;;11.30;3.00;;;;;;;;;;4886367;29;20262;-86
2022/05/30 05:36:19;;;;;;;9.65;2.80;;;;;;;;;;4861599;29;20231;-86
2022/05/30 05:48:56;;;;;;;5.03;2.42;;;;;;;;;;4769321;30;20374;-84
2022/05/30 05:51:39;;;;;;;6.65;2.35;;;;;;;;;;4830255;29;20236;-86
2022/05/30 05:54:09;;;;;;;6.68;2.78;;;;;;;;;;4881927;29;20192;-86
2022/05/30 06:03:00;;;;;;;6.45;2.30;;;;;;;;;;4967912;28;20205;-85
2022/05/30 06:06:03;;;;;;;3.88;2.30;;;;;;;;;;5003606;28;20235;-85
2022/05/30 06:38:41;;;;;;;4.25;2.10;;;;;;;;;;4990027;28;20275;-85
2022/05/30 06:53:43;;;;;;;3.80;2.03;;;;;;;;;;4775476;29;20269;-85
2022/05/30 07:15:17;;;;;;;2.17;1.67;;;;;;;;;;4713390;30;20221;-90
2022/05/30 07:23:28;;;;;;;3.33;2.00;;;;;;;;;;4669679;30;20313;-87
2022/05/30 07:32:44;;;;;;;4.93;2.00;;;;;;;;;;4734356;30;20479;-85
2022/05/30 07:35:13;;;;;;;3.38;2.13;;;;;;;;;;4840253;29;20227;-85
2022/05/30 07:40:58;;;;;;;3.10;1.75;;;;;;;;;;4862604;29;20328;-86
2022/05/30 07:46:22;;;;;;;3.22;1.98;;;;;;;;;;4932446;29;20237;-85
2022/05/30 07:48:53;;;;;;;2.88;1.77;;;;;;;;;;4934783;29;20209;-85
2022/05/30 07:51:31;;;;;;;2.85;1.95;;;;;;;;;;4971547;28;20200;-85
2022/05/30 08:03:11;;;;;;;4.18;1.85;;;;;;;;;;4823810;29;20300;-86
2022/05/30 08:05:46;;;;;;;2.53;1.70;;;;;;;;;;4826645;29;20244;-86
2022/05/30 08:08:19;;;;;;;1.92;1.70;;;;;;;;;;4897974;29;20235;-85
2022/05/30 08:10:48;;;;;;;2.17;1.67;;;;;;;;;;4897167;29;20210;-86
2022/05/30 08:13:15;;;;;;;4.00;2.05;;;;;;;;;;4892655;29;20268;-85
2022/05/30 08:16:07;;;;;;;2.85;1.80;;;;;;;;;;4892601;29;20235;-86
2022/05/30 08:18:40;;;;;;;2.20;2.00;;;;;;;;;;4896745;29;20230;-85
2022/05/30 08:21:22;;;;;;;2.47;2.10;;;;;;;;;;4902667;29;20321;-85
2022/05/30 08:23:50;;;;;;;2.85;1.77;;;;;;;;;;4901566;29;20301;-85
2022/05/30 08:26:17;;;;;;;2.22;1.60;;;;;;;;;;4902633;29;20230;-85
2022/05/30 08:28:55;;;;;;;2.13;1.88;;;;;;;;;;4899688;29;20215;-85
2022/05/30 08:31:45;;;;;;;3.05;1.75;;;;;;;;;;4944351;28;20200;-85
2022/05/30 08:34:22;;;;;;;1.70;1.60;;;;;;;;;;4898159;29;20234;-86
2022/05/30 08:37:20;;;;;;;1.73;1.48;;;;;;;;;;4897989;29;20234;-86
2022/05/30 08:46:34;;;;;;;3.70;1.83;;;;;;;;;;4897474;29;20226;-86
2022/05/30 08:49:15;;;;;;;1.90;1.50;;;;;;;;;;4892304;29;20297;-85
2022/05/30 08:52:00;;;;;;;2.00;1.77;;;;;;;;;;4899044;29;20257;-85
2022/05/30 08:54:41;;;;;;;2.97;1.70;;;;;;;;;;4891816;29;20224;-85
2022/05/30 09:00:23;;;;;;;2.28;1.58;;;;;;;;;;4898229;29;20254;-85
2022/05/30 09:03:11;;;;;;;3.45;2.00;;;;;;;;;;4899453;29;20219;-85
2022/05/30 09:05:56;;;;;;;3.28;1.92;;;;;;;;;;4841710;29;20233;-86
2022/05/30 09:11:29;;;;;;;2.38;1.70;;;;;;;;;;4837572;29;20215;-86
2022/05/30 09:23:26;;;;;;;;;;;;;;;;;;;;;
2022/05/30 09:44:01;;;;;;;2.33;1.67;;;;;;;;;;4935115;29;20235;-84
2022/05/30 09:53:06;;;;;;;1.83;1.60;;;;;;;;;;4854272;29;20240;-86
2022/05/30 09:55:51;;;;;;;3.20;1.58;;;;;;;;;;4860053;29;20247;-85
2022/05/30 09:58:30;;;;;;;2.40;1.38;;;;;;;;;;4863824;29;20318;-86
2022/05/30 10:01:23;;;;;;;2.55;1.40;;;;;;;;;;4850181;29;20220;-87
2022/05/30 10:04:02;;;;;;;2.53;1.33;;;;;;;;;;4857994;29;20252;-85
2022/05/30 10:06:29;;;;;;;1.40;1.30;;;;;;;;;;4921796;23;20231;-85
2022/05/30 10:09:09;;;;;;;2.80;1.60;;;;;;;;;;4992908;28;20230;-83
2022/05/30 10:11:55;;;;;;;2.00;1.67;;;;;;;;;;4988628;28;20287;-85
2022/05/30 10:14:47;;;;;;;3.00;1.70;;;;;;;;;;4986379;28;20296;-85
2022/05/30 10:21:00;;;;;;;2.42;1.45;;;;;;;;;;4970527;28;20215;-84
2022/05/30 10:29:06;;;;;;;4.82;1.95;;;;;;;;;;4931759;28;20199;-80
2022/05/30 10:31:38;;;;;;;2.83;1.83;;;;;;;;;;4967354;28;20212;-81
2022/05/30 10:34:26;;;;;;;3.17;1.60;;;;;;;;;;4972484;28;20215;-81
2022/05/30 10:37:00;;;;;;;1.63;1.45;;;;;;;;;;4968981;28;20228;-81
2022/05/30 10:39:34;;;;;;;2.17;1.50;;;;;;;;;;4966893;28;20242;-82
2022/05/30 10:42:04;;;;;;;2.42;1.80;;;;;;;;;;4967237;28;20249;-82
2022/05/30 10:44:33;;;;;;;3.85;1.75;;;;;;;;;;4973885;28;20200;-87
2022/05/30 10:47:04;;;;;;;1.77;1.67;;;;;;;;;;4977611;28;20223;-88
2022/05/30 10:49:35;;;;;;;2.80;1.52;;;;;;;;;;4981460;28;20270;-83
2022/05/30 10:52:06;;;;;;;5.07;1.65;;;;;;;;;;4974480;28;20236;-83
2022/05/30 10:54:35;;;;;;;1.67;1.58;;;;;;;;;;4973695;28;20211;-83
2022/05/30 10:57:08;;;;;;;3.05;1.83;;;;;;;;;;4974687;28;20223;-84
2022/05/30 10:59:39;;;;;;;4.43;1.60;;;;;;;;;;4969349;28;20286;-83
2022/05/30 11:02:11;;;;;;;1.77;1.40;;;;;;;;;;4968466;28;20232;-81
2022/05/30 11:04:47;;;;;;;2.28;1.65;;;;;;;;;;4970730;28;20204;-84
2022/05/30 11:07:28;;;;;;;1.83;1.52;;;;;;;;;;4965129;28;20731;-82
2022/05/30 11:09:59;;;;;;;1.77;1.38;;;;;;;;;;4969335;28;20231;-84
2022/05/30 11:12:30;;;;;;;1.75;1.48;;;;;;;;;;4970038;28;20232;-83
2022/05/30 11:15:14;;;;;;;2.55;1.67;;;;;;;;;;4971517;28;20212;-82
2022/05/30 11:17:44;;;;;;;2.05;1.40;;;;;;;;;;4971953;28;20220;-82
2022/05/30 11:20:15;;;;;;;2.45;1.70;;;;;;;;;;4973080;28;20625;-82
2022/05/30 11:22:44;;;;;;;2.60;1.40;;;;;;;;;;4970743;28;20231;-81
2022/05/30 11:25:13;;;;;;;1.63;1.30;;;;;;;;;;4962727;28;20673;-87
2022/05/30 11:27:42;;;;;;;1.55;1.30;;;;;;;;;;4982261;28;20223;-85
2022/05/30 11:30:24;;;;;;;3.38;1.60;;;;;;;;;;4979259;28;20201;-81
2022/05/30 11:33:23;;;;;;;1.52;1.40;;;;;;;;;;4972499;28;20204;-82
2022/05/30 11:36:08;;;;;;;1.30;1.20;;;;;;;;;;4967768;28;20204;-81
2022/05/30 11:38:57;;;;;;;3.13;1.63;;;;;;;;;;4975752;28;20208;-80
2022/05/30 11:41:38;;;;;;;2.20;1.60;;;;;;;;;;4969667;28;20597;-82
2022/05/30 11:44:17;;;;;;;3.33;1.55;;;;;;;;;;4968264;28;20203;-82
2022/05/30 11:46:50;;;;;;;1.67;1.38;;;;;;;;;;4964771;28;20269;-82
2022/05/30 11:49:22;;;;;;;2.15;1.48;;;;;;;;;;4970042;28;20633;-81
2022/05/30 11:51:55;;;;;;;1.35;1.25;;;;;;;;;;4983279;28;20211;-82
2022/05/30 11:54:38;;;;;;;1.38;1.27;;;;;;;;;;4998325;28;20218;-83
2022/05/30 11:57:14;;;;;;;1.92;1.42;;;;;;;;;;4983150;28;20219;-82
2022/05/30 11:59:57;;;;;;;1.77;1.38;;;;;;;;;;4987430;28;20290;-83
2022/05/30 12:02:28;;;;;;;2.78;1.50;;;;;;;;;;4971208;28;20220;-82
2022/05/30 12:05:13;;;;;;;1.50;1.40;;;;;;;;;;4982739;28;20207;-83
2022/05/30 12:07:51;;;;;;;1.38;1.25;;;;;;;;;;4970390;28;20270;-83
2022/05/30 12:10:26;;;;;;;3.03;1.40;;;;;;;;;;4984495;28;20208;-83
2022/05/30 12:13:08;;;;;;;1.75;1.40;;;;;;;;;;4994389;28;20210;-82
2022/05/30 12:15:46;;;;;;;1.60;1.50;;;;;;;;;;4989042;28;20208;-84
2022/05/30 12:24:18;;;;;;;2.13;1.30;;;;;;;;;;4987036;28;20206;-82
2022/05/30 12:27:09;;;;;;;2.55;1.48;;;;;;;;;;4964535;28;20228;-82
2022/05/30 12:30:01;;;;;;;1.58;1.48;;;;;;;;;;4983393;28;20211;-83
2022/05/30 12:32:33;;;;;;;2.40;1.58;;;;;;;;;;4990686;28;20284;-83
2022/05/30 12:35:10;;;;;;;1.83;1.30;;;;;;;;;;4980345;28;20231;-83
2022/05/30 12:37:47;;;;;;;1.05;1.02;;;;;;;;;;4987259;28;20278;-82
2022/05/30 12:40:24;;;;;;;2.35;1.30;;;;;;;;;;4982992;28;20234;-83
2022/05/30 12:43:07;;;;;;;4.50;1.00;;;;;;;;;;4986082;28;20261;-81
2022/05/30 12:45:37;;;;;;;1.48;1.30;;;;;;;;;;4983297;28;20215;-83
2022/05/30 12:48:12;;;;;;;1.40;1.30;;;;;;;;;;4977917;28;20255;-82
2022/05/30 12:50:59;;;;;;;1.20;1.10;;;;;;;;;;4977128;28;20256;-82
2022/05/30 12:53:49;;;;;;;1.80;1.23;;;;;;;;;;4977046;28;20215;-80
2022/05/30 12:56:40;;;;;;;1.30;1.20;;;;;;;;;;4976095;28;20232;-82
2022/05/30 12:59:10;;;;;;;1.83;1.25;;;;;;;;;;4971843;28;20287;-82
2022/05/30 13:01:51;;;;;;;1.30;1.10;;;;;;;;;;4977604;28;20220;-83
2022/05/30 13:04:25;;;;;;;2.35;1.30;;;;;;;;;;4989627;28;20220;-82
2022/05/30 13:06:55;;;;;;;1.30;1.15;;;;;;;;;;4977211;28;20238;-83
2022/05/30 13:09:25;;;;;;;1.70;1.40;;;;;;;;;;4977929;28;20252;-82
2022/05/30 13:11:59;;;;;;;1.63;1.40;;;;;;;;;;4977178;28;20208;-83
2022/05/30 13:14:32;;;;;;;1.17;1.08;;;;;;;;;;4991968;28;20668;-84
2022/05/30 13:17:09;;;;;;;1.52;1.30;;;;;;;;;;4994744;28;20235;-86
2022/05/30 13:19:42;;;;;;;1.65;1.30;;;;;;;;;;4979254;28;20207;-81
2022/05/30 13:22:09;;;;;;;1.60;1.20;;;;;;;;;;4989916;28;20234;-83
2022/05/30 13:24:38;;;;;;;2.28;1.23;;;;;;;;;;4983944;28;20250;-83
2022/05/30 13:27:09;;;;;;;1.65;1.23;;;;;;;;;;4991604;28;20288;-83
2022/05/30 13:29:38;;;;;;;4.30;1.30;;;;;;;;;;4988015;28;20220;-82
2022/05/30 13:32:06;;;;;;;2.08;1.30;;;;;;;;;;4986938;28;20199;-84
2022/05/30 13:34:34;;;;;;;4.07;1.48;;;;;;;;;;4981538;28;20195;-82
2022/05/30 13:37:02;;;;;;;2.30;1.20;;;;;;;;;;4984251;28;20247;-82
2022/05/30 13:39:30;;;;;;;2.88;1.48;;;;;;;;;;4989389;28;20231;-82
2022/05/30 13:41:58;;;;;;;1.48;1.30;;;;;;;;;;4978207;28;20259;-82
2022/05/30 13:44:28;;;;;;;1.52;1.35;;;;;;;;;;4981813;28;20224;-81
2022/05/30 13:46:56;;;;;;;2.70;1.30;;;;;;;;;;4977258;28;20294;-81
2022/05/30 13:49:35;;;;;;;1.40;1.30;;;;;;;;;;4985695;28;20296;-81
2022/05/30 13:52:02;;;;;;;1.77;1.30;;;;;;;;;;4983621;28;20203;-82
2022/05/30 13:54:30;;;;;;;3.85;1.40;;;;;;;;;;4987264;28;20203;-83
2022/05/30 13:56:58;;;;;;;1.13;1.13;;;;;;;;;;4982484;28;20306;-82
2022/05/30 13:59:31;;;;;;;1.40;1.23;;;;;;;;;;4990083;28;20237;-82
2022/05/30 14:01:59;;;;;;;2.22;1.42;;;;;;;;;;4984562;28;20215;-82
2022/05/30 14:04:28;;;;;;;2.88;1.40;;;;;;;;;;4982460;28;20219;-82
2022/05/30 14:06:55;;;;;;;1.92;1.20;;;;;;;;;;4978427;28;20240;-83
2022/05/30 14:09:24;;;;;;;2.03;1.20;;;;;;;;;;4992684;28;20221;-82
2022/05/30 14:11:54;;;;;;;2.53;1.30;;;;;;;;;;4994756;28;20211;-82
2022/05/30 14:14:35;;;;;;;2.38;1.65;;;;;;;;;;4996309;28;20207;-80
2022/05/30 14:17:03;;;;;;;2.45;1.40;;;;;;;;;;4977366;28;20254;-80
2022/05/30 14:19:34;;;;;;;2.00;1.38;;;;;;;;;;4989290;28;20259;-85
2022/05/30 14:22:03;;;;;;;1.98;1.50;;;;;;;;;;4986814;28;20266;-86
2022/05/30 14:24:32;;;;;;;2.53;1.48;;;;;;;;;;4990336;28;20242;-83
2022/05/30 14:26:59;;;;;;;2.97;1.40;;;;;;;;;;4988693;28;20274;-82
2022/05/30 14:29:28;;;;;;;2.15;1.38;;;;;;;;;;4986273;28;20210;-81
2022/05/30 14:32:09;;;;;;;2.15;1.40;;;;;;;;;;4985224;28;20196;-82
2022/05/30 14:34:37;;;;;;;1.48;1.30;;;;;;;;;;4987933;28;20242;-82
2022/05/30 14:37:15;;;;;;;1.75;1.17;;;;;;;;;;4986307;28;20238;-82
2022/05/30 14:39:48;;;;;;;1.55;1.23;;;;;;;;;;4983651;28;20214;-82
2022/05/30 14:42:19;;;;;;;1.65;1.42;;;;;;;;;;4990322;28;20306;-82
2022/05/30 14:44:52;;;;;;;1.35;1.23;;;;;;;;;;4978871;28;20195;-82
2022/05/30 14:47:25;;;;;;;1.92;1.20;;;;;;;;;;4985478;28;20220;-81
2022/05/30 14:49:58;;;;;;;2.67;1.33;;;;;;;;;;5004886;28;20203;-82
2022/05/30 14:52:29;;;;;;;1.60;1.38;;;;;;;;;;4994728;28;20258;-81
2022/05/30 14:54:56;;;;;;;2.35;1.30;;;;;;;;;;4975802;28;20207;-82
2022/05/30 14:57:26;;;;;;;3.42;1.60;;;;;;;;;;4970486;28;20256;-83
2022/05/30 14:59:54;;;;;;;5.00;1.55;;;;;;;;;;4970310;28;20342;-82
2022/05/30 15:05:09;;;;;;;3.97;1.80;;;;;;;;;;4981551;28;20210;-82
2022/05/30 15:07:41;;;;;;;3.08;1.50;;;;;;;;;;4977625;28;20241;-82
2022/05/30 15:10:10;;;;;;;2.00;1.30;;;;;;;;;;4994410;28;20211;-82
2022/05/30 15:12:37;;;;;;;2.20;1.63;;;;;;;;;;4981167;28;20204;-85
2022/05/30 15:15:06;;;;;;;2.50;1.50;;;;;;;;;;4970573;28;20204;-79
2022/05/30 15:17:34;;;;;;;2.95;1.60;;;;;;;;;;4973527;28;20227;-81
2022/05/30 15:20:03;;;;;;;2.70;1.55;;;;;;;;;;4970984;28;20299;-80
2022/05/30 15:22:31;;;;;;;1.65;1.50;;;;;;;;;;4982188;28;20243;-81
2022/05/30 15:25:04;;;;;;;2.20;1.38;;;;;;;;;;4974019;28;20211;-81
2022/05/30 15:27:32;;;;;;;4.68;1.70;;;;;;;;;;4972414;28;20230;-81
2022/05/30 15:29:59;;;;;;;5.20;1.60;;;;;;;;;;4974194;28;20256;-81
2022/05/30 15:32:27;;;;;;;2.78;1.48;;;;;;;;;;4979574;28;20203;-81
2022/05/30 15:34:57;;;;;;;3.75;1.55;;;;;;;;;;4974479;28;20212;-80
2022/05/30 15:37:24;;;;;;;3.25;1.60;;;;;;;;;;4969431;28;20228;-81
2022/05/30 15:39:51;;;;;;;2.45;1.50;;;;;;;;;;4972430;28;20299;-81
2022/05/30 15:42:20;;;;;;;4.47;1.90;;;;;;;;;;4988920;28;20223;-81
2022/05/30 15:44:49;;;;;;;2.30;1.25;;;;;;;;;;4993567;28;20215;-81
2022/05/30 15:47:16;;;;;;;2.78;1.75;;;;;;;;;;4994022;28;20255;-81
2022/05/30 15:49:45;;;;;;;2.95;1.50;;;;;;;;;;4993210;28;20297;-79
2022/05/30 15:52:14;;;;;;;3.03;1.65;;;;;;;;;;4991935;28;20262;-80
2022/05/30 15:57:29;;;;;;;3.30;1.65;;;;;;;;;;4986961;28;20270;-81
2022/05/30 15:59:57;;;;;;;1.67;1.40;;;;;;;;;;4973797;28;20216;-80
2022/05/30 16:02:25;;;;;;;2.65;1.67;;;;;;;;;;4979797;28;20227;-80
2022/05/30 16:04:53;;;;;;;3.05;1.60;;;;;;;;;;4980374;28;20278;-80
2022/05/30 17:48:45;;;;;;;3.17;1.45;;;;;;;;;;4966994;28;20276;-82
2022/05/30 17:51:19;;;;;;;2.38;1.30;;;;;;;;;;4971295;28;20200;-81
2022/05/30 17:53:52;;;;;;;2.92;1.50;;;;;;;;;;4978506;28;20208;-85
2022/05/30 17:59:08;;;;;;;2.35;1.50;;;;;;;;;;4957706;29;20251;-85
2022/05/30 18:01:45;;;;;;;3.78;2.40;;;;;;;;;;4952142;29;20720;-85
2022/05/30 18:07:42;;;;;;;;;;;;;;;;;;;;;
2022/05/30 18:13:07;;;;;;;5.82;3.60;;;;;;;;;;4957367;29;20201;-84
2022/05/30 18:15:53;;;;;;;5.00;3.45;;;;;;;;;;4963636;29;20215;-84
2022/05/30 18:21:14;;;;;;;4.15;3.75;;;;;;;;;;4960596;29;20216;-85
2022/05/30 18:23:54;;;;;;;4.32;3.38;;;;;;;;;;4957038;29;20295;-84
2022/05/30 18:26:28;;;;;;;3.00;2.70;;;;;;;;;;4956120;29;20663;-85
2022/05/30 18:32:32;;;;;;;3.90;2.80;;;;;;;;;;4888391;29;20218;-85
2022/05/30 18:35:14;;;;;;;4.20;3.20;;;;;;;;;;4960608;29;20196;-84
2022/05/30 18:48:56;;;;;;;2.60;2.35;;;;;;;;;;5079085;23;20258;-84
2022/05/30 18:57:12;;;;;;;2.65;1.80;;;;;;;;;;4970142;23;20260;-85
2022/05/30 19:06:10;;;;;;;;;;;;;;;;;;;;;
2022/05/30 19:09:03;;;;;;;;;;;;;;;;;;;;;
2022/05/30 19:11:38;;;;;;;2.97;1.90;;;;;;;;;;4942641;29;20193;-87
2022/05/30 19:14:12;;;;;;;3.53;1.63;;;;;;;;;;4933433;29;20213;-85
2022/05/30 19:18:28;;;;;;;1.85;1.75;;;;;;;;;;4942097;29;20232;-86
2022/05/30 19:20:30;;;;;;;2.90;1.90;;;;;;;;;;4919965;29;20297;-85
2022/05/30 19:23:09;;;;;;;2.88;2.08;;;;;;;;;;4938498;29;20217;-86
2022/05/30 19:25:43;;;;;;;1.88;1.58;;;;;;;;;;4939519;29;20211;-85
2022/05/30 19:28:12;;;;;;;1.90;1.80;;;;;;;;;;4940133;29;20233;-85
2022/05/30 19:30:49;;;;;;;2.03;1.83;;;;;;;;;;4940932;29;20244;-85
2022/05/30 19:33:36;;;;;;;;;;;;;;;;;;;;;
2022/05/30 19:42:29;;;;;;;2.90;1.90;;;;;;;;;;4868447;29;20211;-84
2022/05/30 19:45:12;;;;;;;4.22;2.10;;;;;;;;;;4824309;29;20257;-85
2022/05/30 20:15:07;;;;;;;;;;;;;;;;;;;;;
2022/05/30 22:08:49;;;;;;;3.10;2.17;;;;;;;;;;4972735;28;20240;-87
2022/05/30 22:11:19;;;;;;;3.33;2.00;;;;;;;;;;4974229;28;20214;-86
2022/05/30 22:13:47;;;;;;;3.15;2.13;;;;;;;;;;4975266;28;20207;-87
2022/05/30 22:16:16;;;;;;;2.67;2.00;;;;;;;;;;4974714;28;20303;-87
2022/05/30 22:18:43;;;;;;;3.17;1.90;;;;;;;;;;4955919;29;20232;-86
2022/05/30 22:21:11;;;;;;;2.83;1.90;;;;;;;;;;4954233;28;20295;-86
2022/05/30 22:23:38;;;;;;;2.97;2.10;;;;;;;;;;4954694;29;20715;-87
2022/05/30 22:26:09;;;;;;;4.63;2.13;;;;;;;;;;4955309;29;20209;-87
2022/05/30 22:28:36;;;;;;;2.33;2.13;;;;;;;;;;4955003;29;20236;-85
2022/05/30 22:31:03;;;;;;;2.88;2.00;;;;;;;;;;4955306;29;20216;-87
2022/05/30 22:33:38;;;;;;;2.55;1.90;;;;;;;;;;4954640;29;20217;-87
2022/05/30 22:36:09;;;;;;;1.95;1.70;;;;;;;;;;4951240;29;20201;-87
2022/05/30 22:38:40;;;;;;;2.38;1.95;;;;;;;;;;4944736;29;20280;-87
2022/05/30 22:41:15;;;;;;;2.50;1.80;;;;;;;;;;4946861;29;20204;-86
2022/05/30 22:43:47;;;;;;;2.53;1.70;;;;;;;;;;4951150;29;20259;-87
2022/05/30 22:46:15;;;;;;;2.38;1.98;;;;;;;;;;4954567;29;20219;-87
2022/05/30 22:48:43;;;;;;;2.08;1.88;;;;;;;;;;4952847;29;20233;-87
2022/05/30 22:51:11;;;;;;;2.58;1.95;;;;;;;;;;4951114;29;20291;-87
2022/05/30 22:53:38;;;;;;;3.08;1.98;;;;;;;;;;4952148;29;20219;-87
2022/05/30 22:56:06;;;;;;;2.08;1.88;;;;;;;;;;4954806;29;20293;-87
2022/05/30 22:58:35;;;;;;;2.10;1.90;;;;;;;;;;4950261;29;20283;-87
2022/05/30 23:01:03;;;;;;;2.72;1.63;;;;;;;;;;4949379;29;20304;-87
2022/05/30 23:03:34;;;;;;;2.25;2.05;;;;;;;;;;4953540;29;20225;-87
2022/05/30 23:06:02;;;;;;;2.85;1.98;;;;;;;;;;4954127;29;20219;-87
2022/05/30 23:08:29;;;;;;;2.55;1.85;;;;;;;;;;4952694;29;20268;-87
2022/05/30 23:10:59;;;;;;;3.50;2.05;;;;;;;;;;4950715;29;20225;-86
2022/05/30 23:13:31;;;;;;;2.00;1.80;;;;;;;;;;4953983;29;20291;-87
2022/05/30 23:16:01;;;;;;;2.85;2.08;;;;;;;;;;4951668;29;20209;-87
2022/05/30 23:18:28;;;;;;;2.67;1.90;;;;;;;;;;4953446;29;20225;-87
2022/05/30 23:20:58;;;;;;;2.00;1.80;;;;;;;;;;4954495;29;20207;-86